Time;durP1;ratioP1;P1;durP2;ratioP2;P2;SDS_P1;SDS_P2;PMS_P1;PMS_P2;Temp;Humidity;BMP_temperature;BMP_pressure;BME280_temperature;BME280_humidity;BME280_pressure;Samples;Min_cycle;Max_cycle;Signal;HPM_P1;HPM_P2
2022/11/02 00:02:18;;;;;;;4.40;2.80;;;9.90;99.90;;;;;;5115696;28;20582;-80
2022/11/02 00:04:45;;;;;;;2.70;2.50;;;9.80;99.90;;;;;;5105773;28;20984;-80
2022/11/02 00:07:12;;;;;;;2.53;2.30;;;9.80;99.90;;;;;;5094381;28;20841;-80
2022/11/02 00:09:39;;;;;;;3.07;2.87;;;9.80;99.90;;;;;;5100620;28;20466;-80
2022/11/02 00:12:06;;;;;;;5.07;3.50;;;9.80;99.90;;;;;;5116926;28;20486;-79
2022/11/02 00:14:33;;;;;;;6.37;3.20;;;9.70;99.90;;;;;;5110759;28;20202;-79
2022/11/02 00:17:02;;;;;;;6.70;3.10;;;9.70;99.90;;;;;;5098479;28;20472;-80
2022/11/02 00:19:29;;;;;;;5.53;3.13;;;9.70;99.90;;;;;;5117230;28;20447;-80
2022/11/02 00:21:57;;;;;;;8.40;3.73;;;9.70;99.90;;;;;;5119187;28;20207;-80
2022/11/02 00:24:24;;;;;;;3.70;2.90;;;9.60;99.90;;;;;;5102375;28;20508;-80
2022/11/02 00:26:51;;;;;;;2.17;2.03;;;9.60;99.90;;;;;;5097762;28;20468;-80
2022/11/02 00:29:19;;;;;;;3.20;2.83;;;9.60;99.90;;;;;;5111368;28;20202;-80
2022/11/02 00:31:46;;;;;;;4.40;2.85;;;9.50;99.90;;;;;;5119832;28;20505;-79
2022/11/02 00:34:14;;;;;;;3.60;3.30;;;9.50;99.90;;;;;;5104953;28;20203;-80
2022/11/02 00:36:41;;;;;;;3.15;2.85;;;9.50;99.90;;;;;;5098437;28;20227;-80
2022/11/02 00:39:08;;;;;;;6.85;3.90;;;9.50;99.90;;;;;;5111368;28;20206;-81
2022/11/02 00:41:34;;;;;;;3.57;2.93;;;9.60;99.90;;;;;;5120784;28;20710;-80
2022/11/02 00:44:01;;;;;;;4.90;2.50;;;9.50;99.90;;;;;;5110149;28;20449;-80
2022/11/02 08:12:02;;;;;;;3.30;2.43;;;12.70;99.90;;;;;;4345474;26;20519;-85
2022/11/02 09:08:47;;;;;;;1.73;1.50;;;13.60;99.90;;;;;;4936089;29;20994;-85
2022/11/02 09:11:48;;;;;;;1.70;1.13;;;13.70;99.90;;;;;;4979606;28;20478;-86
2022/11/02 09:14:14;;;;;;;2.80;1.80;;;13.80;99.90;;;;;;5029495;28;20454;-85
2022/11/02 09:16:41;;;;;;;1.50;1.20;;;13.80;99.90;;;;;;5030720;28;20493;-84
2022/11/02 09:19:08;;;;;;;3.93;1.40;;;13.80;99.90;;;;;;5027959;28;21007;-84
2022/11/02 09:21:35;;;;;;;2.03;1.60;;;13.70;99.90;;;;;;5022674;28;20493;-83
2022/11/02 09:24:03;;;;;;;1.70;1.30;;;13.80;99.90;;;;;;5026500;28;20514;-84
2022/11/02 09:26:33;;;;;;;1.73;1.43;;;13.70;99.90;;;;;;5025647;28;20458;-84
2022/11/02 09:29:02;;;;;;;5.10;1.97;;;13.60;99.90;;;;;;5023436;28;20442;-84
2022/11/02 09:31:29;;;;;;;7.83;2.70;;;13.70;99.90;;;;;;5022482;28;20565;-84
2022/11/02 09:33:56;;;;;;;3.13;1.10;;;13.80;99.90;;;;;;5023743;28;20485;-84
2022/11/02 09:36:22;;;;;;;2.63;1.47;;;13.80;99.90;;;;;;5023178;28;20465;-84
2022/11/02 09:38:49;;;;;;;3.80;2.00;;;13.80;99.90;;;;;;5023424;28;20525;-84
2022/11/02 09:41:25;;;;;;;3.17;1.40;;;14.00;99.90;;;;;;5023243;28;20467;-85
2022/11/02 09:44:00;;;;;;;5.23;1.80;;;14.10;99.90;;;;;;5020423;28;20525;-85
2022/11/02 09:46:30;;;;;;;3.20;1.90;;;14.40;99.90;;;;;;5021817;28;20480;-85
2022/11/02 09:48:59;;;;;;;1.90;1.80;;;14.40;99.90;;;;;;5020668;28;20502;-85
2022/11/02 09:51:32;;;;;;;3.07;1.43;;;14.60;99.90;;;;;;5022648;28;21003;-84
2022/11/02 09:54:06;;;;;;;3.33;2.30;;;14.60;99.90;;;;;;5017214;28;20586;-85
2022/11/02 09:56:35;;;;;;;3.33;2.33;;;14.60;99.90;;;;;;5018092;28;20457;-87
2022/11/02 09:59:07;;;;;;;3.97;1.80;;;14.60;99.90;;;;;;5021255;28;20489;-84
2022/11/02 10:01:49;;;;;;;2.00;1.90;;;14.80;99.90;;;;;;5021090;28;20474;-84
2022/11/02 10:04:33;;;;;;;3.70;2.03;;;14.80;99.90;;;;;;5019619;28;20465;-83
2022/11/02 10:09:39;;;;;;;3.37;1.90;;;14.60;99.90;;;;;;5020031;28;20522;-84
2022/11/02 10:12:15;;;;;;;5.67;2.50;;;14.40;99.90;;;;;;5018603;28;20540;-84
2022/11/02 10:17:38;;;;;;;1.90;1.80;;;14.20;99.90;;;;;;4966590;29;20468;-84
2022/11/02 10:20:16;;;;;;;2.67;1.87;;;14.20;99.90;;;;;;5005945;28;20470;-84
2022/11/02 10:22:49;;;;;;;3.87;1.80;;;14.10;99.90;;;;;;5008050;28;20447;-84
2022/11/02 10:31:25;;;;;;;1.70;1.60;;;14.10;99.90;;;;;;5022449;28;20453;-84
2022/11/02 10:34:28;;;;;;;2.27;1.40;;;14.20;99.90;;;;;;5021293;28;20649;-85
2022/11/02 10:37:50;;;;;;;3.07;1.90;;;14.40;99.90;;;;;;5000509;28;20452;-84
2022/11/02 10:41:12;;;;;;;7.00;2.50;;;14.40;99.90;;;;;;5012630;28;20442;-86
2022/11/02 10:44:03;;;;;;;3.13;2.80;;;14.50;99.90;;;;;;4960585;29;20529;-85
2022/11/02 10:47:15;;;;;;;6.57;2.00;;;14.60;99.90;;;;;;5017825;28;20546;-85
2022/11/02 10:53:13;;;;;;;3.80;3.07;;;14.80;99.90;;;;;;5010684;28;20475;-84
2022/11/02 11:02:19;;;;;;;2.90;1.47;;;15.00;99.90;;;;;;5024394;28;20446;-85
2022/11/02 11:07:52;;;;;;;5.03;1.60;;;14.90;99.90;;;;;;5008455;28;21300;-84
2022/11/02 11:10:24;;;;;;;5.93;1.63;;;14.90;99.90;;;;;;5024308;28;20476;-84
2022/11/02 11:12:55;;;;;;;5.30;1.53;;;14.80;99.90;;;;;;5026653;28;20570;-85
2022/11/02 11:15:24;;;;;;;1.57;1.47;;;15.00;99.90;;;;;;5024609;28;20454;-86
2022/11/02 11:45:57;;;;;;;6.23;1.50;;;15.80;99.40;;;;;;4992939;28;20833;-85
2022/11/02 11:48:39;;;;;;;1.73;1.63;;;16.50;99.40;;;;;;4999284;28;20475;-85
2022/11/02 11:51:25;;;;;;;3.53;2.73;;;17.40;97.70;;;;;;4993369;28;20539;-88
2022/11/02 12:01:36;;;;;;;3.87;1.67;;;19.00;94.80;;;;;;4981131;28;20465;-87
2022/11/02 12:04:46;;;;;;;4.60;2.10;;;19.80;92.70;;;;;;4981299;28;20451;-87
2022/11/02 12:07:40;;;;;;;2.03;1.47;;;20.20;91.60;;;;;;4978482;28;20533;-84
2022/11/02 12:10:14;;;;;;;2.20;1.70;;;20.90;90.30;;;;;;4966198;28;20455;-87
2022/11/02 12:13:05;;;;;;;3.63;1.57;;;21.60;88.50;;;;;;4974950;28;20546;-89
2022/11/02 12:16:35;;;;;;;11.07;4.53;;;22.50;85.80;;;;;;4983853;28;20452;-88
2022/11/02 12:22:43;;;;;;;2.53;1.23;;;24.10;78.50;;;;;;4919388;29;20456;-88
2022/11/02 12:25:24;;;;;;;2.37;1.83;;;24.10;71.80;;;;;;4934729;29;20869;-89
2022/11/02 15:30:39;;;;;;;4.90;2.70;;;15.40;92.40;;;;;;4749750;30;20536;-86
2022/11/02 16:01:38;;;;;;;6.93;3.20;;;14.70;95.10;;;;;;4821246;29;21063;-86
2022/11/02 16:04:30;;;;;;;6.97;4.63;;;14.60;95.80;;;;;;4820894;29;20467;-86
2022/11/02 16:17:25;;;;;;;5.67;4.13;;;13.70;98.30;;;;;;4986522;28;20502;-86
2022/11/02 17:45:21;;;;;;;9.37;6.43;;;11.20;99.90;;;;;;4952901;29;20442;-88
2022/11/02 17:47:49;;;;;;;9.93;7.17;;;11.10;99.90;;;;;;4971302;28;20511;-87
2022/11/02 17:50:16;;;;;;;13.43;9.27;;;11.00;99.90;;;;;;5098245;28;20968;-87
2022/11/02 17:52:43;;;;;;;12.10;10.80;;;11.00;99.90;;;;;;5103793;28;20777;-86
2022/11/02 17:55:14;;;;;;;9.80;8.90;;;10.90;99.90;;;;;;5103653;28;20457;-87
2022/11/02 17:57:41;;;;;;;12.27;11.13;;;10.90;99.90;;;;;;5103168;28;20487;-87
2022/11/02 18:00:09;;;;;;;13.07;9.97;;;10.90;99.90;;;;;;5103606;28;20479;-87
2022/11/02 18:02:36;;;;;;;16.23;10.20;;;10.90;99.90;;;;;;5102775;28;20475;-86
2022/11/02 18:05:15;;;;;;;10.83;9.30;;;10.90;99.90;;;;;;5103652;28;20524;-87
2022/11/02 18:07:43;;;;;;;9.47;8.47;;;10.80;99.90;;;;;;5103107;28;20434;-87
2022/11/02 18:10:10;;;;;;;11.50;9.03;;;10.80;99.90;;;;;;5102438;28;20500;-87
2022/11/02 18:12:37;;;;;;;11.10;7.30;;;10.70;99.90;;;;;;5102789;28;20484;-87
2022/11/02 18:15:04;;;;;;;8.50;7.60;;;10.60;99.90;;;;;;5103290;28;20464;-87
2022/11/02 18:17:33;;;;;;;10.97;8.10;;;10.60;99.90;;;;;;5102772;28;20475;-87
2022/11/02 18:20:00;;;;;;;7.73;5.60;;;10.60;99.90;;;;;;5104107;28;20473;-87
2022/11/02 18:22:29;;;;;;;9.83;7.27;;;10.50;99.90;;;;;;5102533;28;20521;-87
2022/11/02 18:24:56;;;;;;;11.13;10.03;;;10.50;99.90;;;;;;5102788;28;20478;-87
2022/11/02 18:27:23;;;;;;;9.30;6.70;;;10.50;99.90;;;;;;5102153;28;20462;-88
2022/11/02 18:29:49;;;;;;;11.33;7.43;;;10.50;99.90;;;;;;5100869;28;20514;-87
2022/11/02 18:32:17;;;;;;;10.80;6.10;;;10.40;99.90;;;;;;5102045;28;20463;-87
2022/11/02 18:34:44;;;;;;;9.80;6.50;;;10.40;99.90;;;;;;5102587;28;20973;-88
2022/11/02 18:37:11;;;;;;;9.30;7.30;;;10.40;99.90;;;;;;5102681;28;20484;-87
2022/11/02 18:39:40;;;;;;;7.73;6.50;;;10.30;99.90;;;;;;5101224;28;20290;-87
2022/11/02 18:42:07;;;;;;;12.50;7.13;;;10.30;99.90;;;;;;5101706;28;20448;-88
2022/11/02 18:44:34;;;;;;;8.27;6.57;;;10.30;99.90;;;;;;5103907;28;20460;-88
2022/11/02 18:47:01;;;;;;;13.27;7.90;;;10.30;99.90;;;;;;5104119;28;20975;-88
2022/11/02 18:49:28;;;;;;;14.00;6.63;;;10.20;99.90;;;;;;5103837;28;20546;-88
2022/11/02 18:51:55;;;;;;;9.45;6.72;;;10.20;99.90;;;;;;5103169;28;20479;-88
2022/11/02 18:54:22;;;;;;;10.40;7.93;;;10.20;99.90;;;;;;5103427;28;20213;-87
2022/11/02 18:56:50;;;;;;;9.87;7.00;;;10.10;99.90;;;;;;5103158;28;20570;-87
2022/11/02 18:59:17;;;;;;;14.40;7.90;;;10.10;99.90;;;;;;5101923;28;20485;-89
2022/11/02 19:01:44;;;;;;;8.13;7.37;;;10.10;99.90;;;;;;5101917;28;20458;-88
2022/11/02 19:04:11;;;;;;;7.83;7.03;;;10.00;99.90;;;;;;5102363;28;20643;-87
2022/11/02 19:09:25;;;;;;;14.40;11.35;;;10.00;99.90;;;;;;5101061;28;20531;-87
2022/11/02 19:12:00;;;;;;;18.17;14.30;;;10.00;99.90;;;;;;5102023;28;20589;-88
2022/11/02 19:14:29;;;;;;;18.85;14.90;;;9.90;99.90;;;;;;5102232;28;20436;-87
2022/11/02 19:16:56;;;;;;;12.30;9.97;;;9.90;99.90;;;;;;5102898;28;20214;-87
2022/11/02 19:19:23;;;;;;;14.05;9.48;;;9.80;99.90;;;;;;5118613;28;20457;-87
2022/11/02 19:21:50;;;;;;;14.97;7.43;;;9.80;99.90;;;;;;5119294;28;20220;-89
2022/11/02 19:24:17;;;;;;;13.40;8.27;;;9.70;99.90;;;;;;5106935;28;20456;-87
2022/11/02 19:26:44;;;;;;;9.93;6.35;;;9.80;99.90;;;;;;5102900;28;20461;-88
2022/11/02 19:29:13;;;;;;;9.85;7.47;;;9.80;99.90;;;;;;5101604;28;20283;-87
2022/11/02 19:31:40;;;;;;;12.33;9.17;;;9.70;99.90;;;;;;5102328;28;20206;-87
2022/11/02 19:34:07;;;;;;;13.75;8.70;;;9.70;99.90;;;;;;5101750;28;20951;-88
2022/11/02 19:36:36;;;;;;;16.90;7.50;;;9.70;99.90;;;;;;5101090;28;20290;-87
2022/11/02 19:39:05;;;;;;;10.57;7.70;;;9.60;99.90;;;;;;5101432;28;20489;-87
2022/11/02 19:41:33;;;;;;;13.75;9.50;;;9.60;99.90;;;;;;5101485;28;20233;-87
2022/11/02 19:44:00;;;;;;;12.55;7.10;;;9.60;99.90;;;;;;5100313;28;20210;-87
2022/11/02 19:46:28;;;;;;;9.50;7.60;;;9.50;99.90;;;;;;5101071;28;20226;-88
2022/11/02 19:48:56;;;;;;;15.70;10.13;;;9.50;99.90;;;;;;5100378;28;20588;-87
2022/11/02 19:51:25;;;;;;;25.30;9.35;;;9.40;99.90;;;;;;5101099;28;20724;-87
2022/11/02 19:53:54;;;;;;;9.40;8.45;;;9.40;99.90;;;;;;5101447;28;20640;-87
2022/11/02 19:56:22;;;;;;;13.05;9.38;;;9.40;99.90;;;;;;5101042;28;20281;-88
2022/11/02 19:58:51;;;;;;;9.57;8.13;;;9.40;99.90;;;;;;5100161;28;20251;-87
2022/11/02 20:01:19;;;;;;;9.32;7.00;;;9.40;99.90;;;;;;5100456;28;20222;-88
2022/11/02 20:03:48;;;;;;;11.80;7.88;;;9.40;99.90;;;;;;5100796;28;20236;-88
2022/11/02 20:06:17;;;;;;;10.32;7.65;;;9.30;99.90;;;;;;5100061;28;20219;-87
2022/11/02 20:08:44;;;;;;;9.40;6.85;;;9.30;99.90;;;;;;5100243;28;20284;-88
2022/11/02 20:11:13;;;;;;;10.25;7.07;;;9.30;99.90;;;;;;5100933;28;20263;-87
2022/11/02 20:13:44;;;;;;;9.40;7.38;;;9.30;99.90;;;;;;5100204;28;20233;-87
2022/11/02 20:16:13;;;;;;;12.52;7.82;;;9.30;99.90;;;;;;5100265;28;20223;-87
2022/11/02 20:18:40;;;;;;;16.45;10.50;;;9.20;99.90;;;;;;5100200;28;20218;-87
2022/11/02 20:21:12;;;;;;;17.50;10.88;;;9.20;99.90;;;;;;5104222;28;20226;-90
2022/11/02 20:23:40;;;;;;;9.82;8.82;;;9.20;99.90;;;;;;5108895;28;20197;-87
2022/11/02 20:26:09;;;;;;;15.23;10.55;;;9.20;99.90;;;;;;5100493;28;20220;-85
2022/11/02 20:28:38;;;;;;;12.80;11.68;;;9.10;99.90;;;;;;5105666;28;20231;-86
2022/11/02 20:31:08;;;;;;;13.05;9.27;;;9.10;99.90;;;;;;5107241;28;20239;-85
2022/11/02 20:33:39;;;;;;;11.50;8.90;;;9.10;99.90;;;;;;5107626;28;20238;-85
2022/11/02 20:36:55;;;;;;;12.20;9.07;;;9.00;99.90;;;;;;5105984;28;20259;-86
2022/11/02 20:39:23;;;;;;;10.60;9.38;;;9.00;99.90;;;;;;5105676;28;20234;-86
2022/11/02 20:41:54;;;;;;;9.23;8.43;;;9.00;99.90;;;;;;5102190;28;20220;-87
2022/11/02 20:44:22;;;;;;;11.30;10.13;;;9.00;99.90;;;;;;5101470;28;20624;-87
2022/11/02 20:46:49;;;;;;;15.50;9.93;;;9.00;99.90;;;;;;5097796;28;20205;-86
2022/11/02 20:49:16;;;;;;;8.98;8.05;;;8.90;99.90;;;;;;5090323;28;20313;-87
2022/11/02 20:51:43;;;;;;;11.07;9.98;;;8.90;99.90;;;;;;5095883;28;20223;-86
2022/11/02 20:54:10;;;;;;;12.00;9.05;;;8.80;99.90;;;;;;5092602;28;20274;-86
2022/11/02 20:56:38;;;;;;;10.60;8.80;;;8.90;99.90;;;;;;5102404;28;20210;-85
2022/11/02 20:59:05;;;;;;;11.05;9.38;;;8.80;99.90;;;;;;5093067;28;20308;-85
2022/11/02 21:01:31;;;;;;;11.38;8.98;;;8.80;99.90;;;;;;5093839;28;20224;-86
2022/11/02 21:03:58;;;;;;;10.60;9.52;;;8.80;99.90;;;;;;5093688;28;20197;-86
2022/11/02 21:06:25;;;;;;;13.10;9.25;;;8.80;99.90;;;;;;5096163;28;20200;-86
2022/11/02 21:08:52;;;;;;;10.70;9.00;;;8.80;99.90;;;;;;5093705;28;20301;-86
2022/11/02 21:14:04;;;;;;;11.48;7.82;;;8.70;99.90;;;;;;5092517;28;20225;-86
2022/11/02 21:16:31;;;;;;;18.45;9.65;;;8.70;99.90;;;;;;5096222;28;20239;-86
2022/11/02 21:18:57;;;;;;;13.30;8.27;;;8.70;99.90;;;;;;5110334;28;20228;-85
2022/11/02 21:21:24;;;;;;;11.45;7.88;;;8.70;99.90;;;;;;5111066;28;20293;-86
2022/11/02 21:23:51;;;;;;;14.43;8.30;;;8.60;99.90;;;;;;5108829;28;20228;-87
2022/11/02 21:26:18;;;;;;;14.90;9.60;;;8.60;99.90;;;;;;5106849;28;20231;-86
2022/11/02 21:28:45;;;;;;;10.35;7.97;;;8.60;99.90;;;;;;5096053;28;20305;-87
2022/11/02 21:31:15;;;;;;;9.38;8.35;;;8.60;99.90;;;;;;5097396;28;20223;-87
2022/11/02 21:33:42;;;;;;;10.32;9.32;;;8.60;99.90;;;;;;5098968;28;20194;-87
2022/11/02 21:36:09;;;;;;;9.88;8.45;;;8.60;99.90;;;;;;5096738;28;20220;-87
2022/11/02 21:38:37;;;;;;;10.00;7.57;;;8.60;99.90;;;;;;5099866;28;20220;-86
2022/11/02 21:41:05;;;;;;;9.15;7.60;;;8.60;99.90;;;;;;5097962;28;20224;-87
2022/11/02 21:43:34;;;;;;;12.43;9.20;;;8.60;99.90;;;;;;5097883;28;20264;-87
2022/11/02 21:46:03;;;;;;;15.65;9.77;;;8.60;99.90;;;;;;5097423;28;20260;-86
2022/11/02 21:48:33;;;;;;;12.60;10.40;;;8.50;99.90;;;;;;5098858;28;20544;-87
2022/11/02 21:51:01;;;;;;;9.40;8.40;;;8.50;99.90;;;;;;5099312;28;20821;-87
2022/11/02 21:53:28;;;;;;;10.63;8.85;;;8.50;99.90;;;;;;5100316;28;20269;-86
2022/11/02 21:55:59;;;;;;;12.40;9.15;;;8.50;99.90;;;;;;5097323;28;20202;-85
2022/11/02 21:58:26;;;;;;;13.68;9.20;;;8.50;99.90;;;;;;5101039;28;20222;-85
2022/11/02 22:03:43;;;;;;;12.82;9.05;;;8.50;99.90;;;;;;5099627;28;20223;-85
2022/11/02 22:06:10;;;;;;;12.82;9.68;;;8.50;99.90;;;;;;5096152;28;20293;-85
